Terminal Aerodrome Forecast
Issued by NWS

Home | Current Version | Previous Version | Text Only | Print | Product List | Glossary On
Versions: 1 2 3 4 5 6 7 8 9 10 11 12 13 14 15 16
000
FTUS43 KGRB 312000 AAA
TAFMTW
TAF AMD
KMTW 312038Z 3121/0118 27005KT P6SM SCT035 BKN050
      TEMPO 3121/3123 2SM +TSRA OVC035CB
     FM312300 28005KT P6SM VCTS BKN040CB
     FM010200 VRB03KT P6SM SCT080
     FM010900 VRB03KT 4SM BR SCT250
     FM011200 22004KT P6SM SCT030 BKN080=

USA.gov is the U.S. government's official web portal to all federal, state and local government web resources and services.